sensor_id;sensor_type;location;lat;lon;timestamp;pressure;altitude;pressure_sealevel;temperature;humidity
3780;BME280;1905;52.482;9.802;2023-04-04T00:01:04;102631.47;;;2.45;72.67
3780;BME280;1905;52.482;9.802;2023-04-04T00:03:32;102637.63;;;2.47;71.63
3780;BME280;1905;52.482;9.802;2023-04-04T00:06:00;102648.84;;;2.43;72.16
3780;BME280;1905;52.482;9.802;2023-04-04T00:08:29;102646.16;;;2.40;71.79
3780;BME280;1905;52.482;9.802;2023-04-04T00:10:57;102644.28;;;2.34;72.07
3780;BME280;1905;52.482;9.802;2023-04-04T00:13:25;102646.88;;;2.33;72.27
3780;BME280;1905;52.482;9.802;2023-04-04T00:15:53;102643.31;;;2.28;72.07
3780;BME280;1905;52.482;9.802;2023-04-04T00:18:21;102638.09;;;2.28;72.98
3780;BME280;1905;52.482;9.802;2023-04-04T00:20:49;102635.34;;;2.22;72.42
3780;BME280;1905;52.482;9.802;2023-04-04T00:23:16;102630.03;;;2.17;72.78
3780;BME280;1905;52.482;9.802;2023-04-04T00:25:51;102630.81;;;2.13;73.22
3780;BME280;1905;52.482;9.802;2023-04-04T00:28:19;102637.66;;;2.10;73.01
3780;BME280;1905;52.482;9.802;2023-04-04T00:30:47;102634.16;;;2.08;72.85
3780;BME280;1905;52.482;9.802;2023-04-04T00:33:15;102639.16;;;1.99;72.76
3780;BME280;1905;52.482;9.802;2023-04-04T00:35:42;102636.53;;;1.97;72.12
3780;BME280;1905;52.482;9.802;2023-04-04T00:38:10;102635.63;;;1.97;73.16
3780;BME280;1905;52.482;9.802;2023-04-04T00:40:40;102631.22;;;1.93;73.42
3780;BME280;1905;52.482;9.802;2023-04-04T00:43:10;102624.13;;;1.87;73.40
3780;BME280;1905;52.482;9.802;2023-04-04T00:45:37;102634.41;;;1.81;73.05
3780;BME280;1905;52.482;9.802;2023-04-04T00:48:06;102635.22;;;1.78;72.59
3780;BME280;1905;52.482;9.802;2023-04-04T00:50:34;102624.72;;;1.75;73.50
3780;BME280;1905;52.482;9.802;2023-04-04T00:53:02;102632.44;;;1.71;73.43
3780;BME280;1905;52.482;9.802;2023-04-04T00:55:30;102622.03;;;1.71;73.42
3780;BME280;1905;52.482;9.802;2023-04-04T00:57:58;102632.38;;;1.68;73.38
3780;BME280;1905;52.482;9.802;2023-04-04T01:00:28;102635.00;;;1.69;73.26
3780;BME280;1905;52.482;9.802;2023-04-04T01:02:56;102631.41;;;1.64;73.23
3780;BME280;1905;52.482;9.802;2023-04-04T01:05:23;102632.13;;;1.57;73.28
3780;BME280;1905;52.482;9.802;2023-04-04T01:07:51;102629.44;;;1.56;73.34
3780;BME280;1905;52.482;9.802;2023-04-04T01:10:19;102624.16;;;1.53;73.19
3780;BME280;1905;52.482;9.802;2023-04-04T01:12:47;102629.34;;;1.51;73.63
3780;BME280;1905;52.482;9.802;2023-04-04T01:15:16;102626.66;;;1.48;73.62
3780;BME280;1905;52.482;9.802;2023-04-04T01:17:45;102620.56;;;1.46;73.25
3780;BME280;1905;52.482;9.802;2023-04-04T01:20:14;102626.56;;;1.44;73.20
3780;BME280;1905;52.482;9.802;2023-04-04T01:22:50;102625.69;;;1.43;73.20
3780;BME280;1905;52.482;9.802;2023-04-04T01:25:24;102624.59;;;1.35;73.05
3780;BME280;1905;52.482;9.802;2023-04-04T01:27:55;102628.94;;;1.36;73.84
3780;BME280;1905;52.482;9.802;2023-04-04T01:30:24;102628.00;;;1.33;73.75
3780;BME280;1905;52.482;9.802;2023-04-04T01:32:58;102620.97;;;1.29;73.97
3780;BME280;1905;52.482;9.802;2023-04-04T01:35:31;102627.06;;;1.29;73.32
3780;BME280;1905;52.482;9.802;2023-04-04T01:38:10;102625.19;;;1.25;74.00
3780;BME280;1905;52.482;9.802;2023-04-04T01:40:43;102619.94;;;1.22;73.63
3780;BME280;1905;52.482;9.802;2023-04-04T01:43:15;102617.25;;;1.19;73.98
3780;BME280;1905;52.482;9.802;2023-04-04T01:45:43;102611.09;;;1.17;74.00
3780;BME280;1905;52.482;9.802;2023-04-04T01:48:12;102605.84;;;1.14;73.70
3780;BME280;1905;52.482;9.802;2023-04-04T01:50:45;102605.72;;;1.09;73.63
3780;BME280;1905;52.482;9.802;2023-04-04T01:53:13;102602.31;;;1.12;73.92
3780;BME280;1905;52.482;9.802;2023-04-04T01:55:40;102597.84;;;1.06;73.68
3780;BME280;1905;52.482;9.802;2023-04-04T01:58:11;102594.38;;;1.06;73.97
3780;BME280;1905;52.482;9.802;2023-04-04T02:00:38;102604.69;;;1.03;73.58
3780;BME280;1905;52.482;9.802;2023-04-04T02:03:07;102598.50;;;0.98;74.05
3780;BME280;1905;52.482;9.802;2023-04-04T02:05:34;102596.72;;;0.97;73.07
3780;BME280;1905;52.482;9.802;2023-04-04T02:08:02;102601.03;;;0.95;74.06
3780;BME280;1905;52.482;9.802;2023-04-04T02:10:38;102606.06;;;0.90;73.69
3780;BME280;1905;52.482;9.802;2023-04-04T02:13:06;102602.56;;;0.88;73.92
3780;BME280;1905;52.482;9.802;2023-04-04T02:15:35;102601.75;;;0.91;74.16
3780;BME280;1905;52.482;9.802;2023-04-04T02:18:03;102606.94;;;0.89;73.64
3780;BME280;1905;52.482;9.802;2023-04-04T02:20:30;102605.06;;;0.84;73.88
3780;BME280;1905;52.482;9.802;2023-04-04T02:22:58;102605.94;;;0.84;73.96
3780;BME280;1905;52.482;9.802;2023-04-04T02:25:25;102598.84;;;0.79;74.00
3780;BME280;1905;52.482;9.802;2023-04-04T02:27:53;102596.25;;;0.79;73.79
3780;BME280;1905;52.482;9.802;2023-04-04T02:30:21;102593.66;;;0.79;74.00
3780;BME280;1905;52.482;9.802;2023-04-04T02:32:50;102590.09;;;0.75;74.15
3780;BME280;1905;52.482;9.802;2023-04-04T02:35:19;102587.38;;;0.71;74.78
3780;BME280;1905;52.482;9.802;2023-04-04T02:37:48;102587.28;;;0.68;74.49
3780;BME280;1905;52.482;9.802;2023-04-04T02:40:21;102578.53;;;0.66;73.88
3780;BME280;1905;52.482;9.802;2023-04-04T02:42:49;102587.28;;;0.68;74.80
3780;BME280;1905;52.482;9.802;2023-04-04T02:45:18;102581.03;;;0.63;74.08
3780;BME280;1905;52.482;9.802;2023-04-04T02:47:56;102575.03;;;0.64;74.06
3780;BME280;1905;52.482;9.802;2023-04-04T02:50:34;102573.22;;;0.61;74.33
3780;BME280;1905;52.482;9.802;2023-04-04T02:53:02;102576.63;;;0.58;73.88
3780;BME280;1905;52.482;9.802;2023-04-04T02:55:32;102562.81;;;0.59;74.04
3780;BME280;1905;52.482;9.802;2023-04-04T02:58:00;102564.44;;;0.57;74.03
3780;BME280;1905;52.482;9.802;2023-04-04T03:00:28;102560.94;;;0.55;74.00
3780;BME280;1905;52.482;9.802;2023-04-04T03:02:57;102567.81;;;0.53;74.38
3780;BME280;1905;52.482;9.802;2023-04-04T03:05:31;102556.53;;;0.53;74.07
3780;BME280;1905;52.482;9.802;2023-04-04T03:07:59;102559.13;;;0.53;74.60
3780;BME280;1905;52.482;9.802;2023-04-04T03:10:28;102566.91;;;0.51;74.28
3780;BME280;1905;52.482;9.802;2023-04-04T03:12:56;102558.16;;;0.49;74.12
3780;BME280;1905;52.482;9.802;2023-04-04T03:15:26;102557.31;;;0.49;74.19
3780;BME280;1905;52.482;9.802;2023-04-04T03:17:54;102557.16;;;0.44;74.20
3780;BME280;1905;52.482;9.802;2023-04-04T03:20:25;102552.81;;;0.43;74.20
3780;BME280;1905;52.482;9.802;2023-04-04T03:22:53;102544.94;;;0.40;74.22
3780;BME280;1905;52.482;9.802;2023-04-04T03:25:21;102553.56;;;0.39;74.30
3780;BME280;1905;52.482;9.802;2023-04-04T03:27:49;102546.59;;;0.38;74.35
3780;BME280;1905;52.482;9.802;2023-04-04T03:30:20;102537.94;;;0.38;74.49
3780;BME280;1905;52.482;9.802;2023-04-04T03:32:48;102544.75;;;0.34;74.41
3780;BME280;1905;52.482;9.802;2023-04-04T03:35:16;102543.00;;;0.33;74.00
3780;BME280;1905;52.482;9.802;2023-04-04T03:37:45;102546.53;;;0.35;74.44
3780;BME280;1905;52.482;9.802;2023-04-04T03:40:13;102540.31;;;0.30;74.58
3780;BME280;1905;52.482;9.802;2023-04-04T03:42:41;102548.09;;;0.30;74.58
3780;BME280;1905;52.482;9.802;2023-04-04T03:45:10;102544.59;;;0.28;74.56
3780;BME280;1905;52.482;9.802;2023-04-04T03:47:40;102542.88;;;0.29;74.90
3780;BME280;1905;52.482;9.802;2023-04-04T03:50:08;102540.19;;;0.26;74.58
3780;BME280;1905;52.482;9.802;2023-04-04T03:52:44;102537.50;;;0.23;74.51
3780;BME280;1905;52.482;9.802;2023-04-04T03:55:12;102541.88;;;0.24;74.58
3780;BME280;1905;52.482;9.802;2023-04-04T03:57:40;102538.28;;;0.19;74.56
3780;BME280;1905;52.482;9.802;2023-04-04T04:00:11;102544.41;;;0.22;74.76
3780;BME280;1905;52.482;9.802;2023-04-04T04:02:38;102540.97;;;0.23;74.48
3780;BME280;1905;52.482;9.802;2023-04-04T04:05:08;102539.13;;;0.19;74.52
3780;BME280;1905;52.482;9.802;2023-04-04T04:07:36;102535.59;;;0.17;74.13
3780;BME280;1905;52.482;9.802;2023-04-04T04:10:08;102533.88;;;0.16;74.45
3780;BME280;1905;52.482;9.802;2023-04-04T04:12:37;102538.19;;;0.16;74.74
3780;BME280;1905;52.482;9.802;2023-04-04T04:15:05;102530.31;;;0.14;74.47
3780;BME280;1905;52.482;9.802;2023-04-04T04:17:33;102528.59;;;0.13;74.49
3780;BME280;1905;52.482;9.802;2023-04-04T04:20:01;102535.38;;;0.08;74.64
3780;BME280;1905;52.482;9.802;2023-04-04T04:22:36;102525.81;;;0.07;74.46
3780;BME280;1905;52.482;9.802;2023-04-04T04:25:04;102526.72;;;0.09;74.37
3780;BME280;1905;52.482;9.802;2023-04-04T04:27:34;102537.00;;;0.06;74.62
3780;BME280;1905;52.482;9.802;2023-04-04T04:30:02;102537.00;;;0.06;74.47
3780;BME280;1905;52.482;9.802;2023-04-04T04:32:35;102540.47;;;0.05;74.09
3780;BME280;1905;52.482;9.802;2023-04-04T04:35:04;102536.91;;;0.03;74.67
3780;BME280;1905;52.482;9.802;2023-04-04T04:37:34;102532.63;;;0.04;74.68
3780;BME280;1905;52.482;9.802;2023-04-04T04:40:05;102535.97;;;-0.01;75.04
3780;BME280;1905;52.482;9.802;2023-04-04T04:42:42;102530.59;;;-0.07;74.73
3780;BME280;1905;52.482;9.802;2023-04-04T04:45:10;102533.31;;;-0.02;74.74
3780;BME280;1905;52.482;9.802;2023-04-04T04:47:42;102537.50;;;-0.07;74.63
3780;BME280;1905;52.482;9.802;2023-04-04T04:50:15;102534.97;;;-0.06;74.62
3780;BME280;1905;52.482;9.802;2023-04-04T04:52:49;102528.81;;;-0.08;74.96
3780;BME280;1905;52.482;9.802;2023-04-04T04:55:17;102527.94;;;-0.08;74.60
3780;BME280;1905;52.482;9.802;2023-04-04T04:57:53;102531.41;;;-0.08;74.84
3780;BME280;1905;52.482;9.802;2023-04-04T05:00:24;102543.47;;;-0.11;74.66
3780;BME280;1905;52.482;9.802;2023-04-04T05:02:53;102543.47;;;-0.11;74.77
3780;BME280;1905;52.482;9.802;2023-04-04T05:05:30;102548.56;;;-0.14;74.77
3780;BME280;1905;52.482;9.802;2023-04-04T05:08:03;102547.66;;;-0.15;75.10
3780;BME280;1905;52.482;9.802;2023-04-04T05:10:34;102555.38;;;-0.16;74.96
3780;BME280;1905;52.482;9.802;2023-04-04T05:13:03;102547.47;;;-0.21;74.84
3780;BME280;1905;52.482;9.802;2023-04-04T05:15:38;102542.38;;;-0.18;74.73
3780;BME280;1905;52.482;9.802;2023-04-04T05:18:07;102550.19;;;-0.16;74.57
3780;BME280;1905;52.482;9.802;2023-04-04T05:20:35;102550.13;;;-0.19;74.58
3780;BME280;1905;52.482;9.802;2023-04-04T05:23:05;102560.41;;;-0.22;74.81
3780;BME280;1905;52.482;9.802;2023-04-04T05:25:37;102561.28;;;-0.22;74.91
3780;BME280;1905;52.482;9.802;2023-04-04T05:28:07;102563.94;;;-0.20;74.59
3780;BME280;1905;52.482;9.802;2023-04-04T05:30:36;102565.78;;;-0.16;75.07
3780;BME280;1905;52.482;9.802;2023-04-04T05:33:13;102568.34;;;-0.18;74.33
3780;BME280;1905;52.482;9.802;2023-04-04T05:35:47;102567.34;;;-0.21;74.67
3780;BME280;1905;52.482;9.802;2023-04-04T05:38:16;102574.41;;;-0.17;74.46
3780;BME280;1905;52.482;9.802;2023-04-04T05:40:47;102578.72;;;-0.18;74.75
3780;BME280;1905;52.482;9.802;2023-04-04T05:43:19;102583.03;;;-0.18;73.97
3780;BME280;1905;52.482;9.802;2023-04-04T05:46:01;102578.63;;;-0.21;74.37
3780;BME280;1905;52.482;9.802;2023-04-04T05:48:35;102576.16;;;-0.16;74.24
3780;BME280;1905;52.482;9.802;2023-04-04T05:51:02;102577.84;;;-0.18;73.96
3780;BME280;1905;52.482;9.802;2023-04-04T05:53:39;102579.69;;;-0.14;74.37
3780;BME280;1905;52.482;9.802;2023-04-04T05:56:06;102583.13;;;-0.15;74.20
3780;BME280;1905;52.482;9.802;2023-04-04T05:58:35;102578.13;;;-0.09;74.39
3780;BME280;1905;52.482;9.802;2023-04-04T06:01:05;102573.97;;;-0.03;73.77
3780;BME280;1905;52.482;9.802;2023-04-04T06:03:34;102568.78;;;-0.03;74.22
3780;BME280;1905;52.482;9.802;2023-04-04T06:06:05;102578.41;;;0.00;73.41
3780;BME280;1905;52.482;9.802;2023-04-04T06:08:33;102571.34;;;-0.04;73.80
3780;BME280;1905;52.482;9.802;2023-04-04T06:11:18;102579.25;;;0.00;73.48
3780;BME280;1905;52.482;9.802;2023-04-04T06:13:49;102576.81;;;0.05;73.36
3780;BME280;1905;52.482;9.802;2023-04-04T06:16:20;102577.84;;;0.10;73.03
3780;BME280;1905;52.482;9.802;2023-04-04T06:18:48;102581.34;;;0.12;73.09
3780;BME280;1905;52.482;9.802;2023-04-04T06:21:15;102582.16;;;0.11;73.07
3780;BME280;1905;52.482;9.802;2023-04-04T06:23:43;102582.34;;;0.17;73.05
3780;BME280;1905;52.482;9.802;2023-04-04T06:26:11;102589.31;;;0.18;73.29
3780;BME280;1905;52.482;9.802;2023-04-04T06:28:45;102582.44;;;0.20;73.36
3780;BME280;1905;52.482;9.802;2023-04-04T06:31:17;102582.53;;;0.23;73.48
3780;BME280;1905;52.482;9.802;2023-04-04T06:33:46;102587.84;;;0.26;72.72
3780;BME280;1905;52.482;9.802;2023-04-04T06:36:15;102585.94;;;0.21;73.04
3780;BME280;1905;52.482;9.802;2023-04-04T06:38:45;102591.34;;;0.28;72.92
3780;BME280;1905;52.482;9.802;2023-04-04T06:41:17;102578.41;;;0.30;72.83
3780;BME280;1905;52.482;9.802;2023-04-04T06:43:46;102583.66;;;0.33;72.90
3780;BME280;1905;52.482;9.802;2023-04-04T06:46:14;102587.22;;;0.35;73.22
3780;BME280;1905;52.482;9.802;2023-04-04T06:48:43;102582.72;;;0.29;73.60
3780;BME280;1905;52.482;9.802;2023-04-04T06:51:11;102582.91;;;0.35;73.40
3780;BME280;1905;52.482;9.802;2023-04-04T06:53:42;102583.81;;;0.37;73.35
3780;BME280;1905;52.482;9.802;2023-04-04T06:56:10;102589.22;;;0.45;73.28
3780;BME280;1905;52.482;9.802;2023-04-04T06:58:38;102586.59;;;0.43;73.64
3780;BME280;1905;52.482;9.802;2023-04-04T07:01:06;102591.91;;;0.48;73.56
3780;BME280;1905;52.482;9.802;2023-04-04T07:03:33;102593.81;;;0.53;73.46
3780;BME280;1905;52.482;9.802;2023-04-04T07:06:03;102595.56;;;0.54;74.12
3780;BME280;1905;52.482;9.802;2023-04-04T07:08:31;102587.72;;;0.53;73.65
3780;BME280;1905;52.482;9.802;2023-04-04T07:11:02;102594.72;;;0.55;73.75
3780;BME280;1905;52.482;9.802;2023-04-04T07:13:29;102590.53;;;0.60;74.26
3780;BME280;1905;52.482;9.802;2023-04-04T07:15:57;102592.31;;;0.63;74.52
3780;BME280;1905;52.482;9.802;2023-04-04T07:18:24;102588.28;;;0.73;74.97
3780;BME280;1905;52.482;9.802;2023-04-04T07:20:52;102593.69;;;0.82;75.52
3780;BME280;1905;52.482;9.802;2023-04-04T07:23:21;102593.59;;;0.77;75.34
3780;BME280;1905;52.482;9.802;2023-04-04T07:25:48;102594.66;;;0.84;75.22
3780;BME280;1905;52.482;9.802;2023-04-04T07:28:16;102593.03;;;0.89;74.83
3780;BME280;1905;52.482;9.802;2023-04-04T07:30:43;102600.22;;;0.97;75.45
3780;BME280;1905;52.482;9.802;2023-04-04T07:33:11;102603.84;;;1.04;75.88
3780;BME280;1905;52.482;9.802;2023-04-04T07:35:38;102604.91;;;1.12;75.20
3780;BME280;1905;52.482;9.802;2023-04-04T07:38:06;102593.75;;;1.16;75.76
3780;BME280;1905;52.482;9.802;2023-04-04T07:40:36;102601.84;;;1.27;75.74
3780;BME280;1905;52.482;9.802;2023-04-04T07:43:04;102602.88;;;1.33;75.79
3780;BME280;1905;52.482;9.802;2023-04-04T07:45:31;102603.81;;;1.37;75.20
3780;BME280;1905;52.482;9.802;2023-04-04T07:47:59;102597.97;;;1.45;75.21
3780;BME280;1905;52.482;9.802;2023-04-04T07:50:27;102592.81;;;1.48;74.68
3780;BME280;1905;52.482;9.802;2023-04-04T07:52:54;102584.38;;;1.58;75.47
3780;BME280;1905;52.482;9.802;2023-04-04T07:55:23;102588.13;;;1.69;76.47
3780;BME280;1905;52.482;9.802;2023-04-04T07:57:52;102584.84;;;1.76;75.98
3780;BME280;1905;52.482;9.802;2023-04-04T08:00:21;102585.91;;;1.86;75.67
3780;BME280;1905;52.482;9.802;2023-04-04T08:02:51;102580.84;;;1.94;74.57
3780;BME280;1905;52.482;9.802;2023-04-04T08:05:20;102583.69;;;2.03;75.13
3780;BME280;1905;52.482;9.802;2023-04-04T08:07:47;102576.75;;;2.03;73.69
3780;BME280;1905;52.482;9.802;2023-04-04T08:10:15;102569.16;;;2.15;73.96
3780;BME280;1905;52.482;9.802;2023-04-04T08:12:44;102569.47;;;2.29;73.87
3780;BME280;1905;52.482;9.802;2023-04-04T08:15:13;102566.09;;;2.34;71.85
3780;BME280;1905;52.482;9.802;2023-04-04T08:17:40;102566.25;;;2.42;72.15
3780;BME280;1905;52.482;9.802;2023-04-04T08:20:10;102564.00;;;2.60;71.52
3780;BME280;1905;52.482;9.802;2023-04-04T08:22:39;102563.28;;;2.67;73.11
3780;BME280;1905;52.482;9.802;2023-04-04T08:25:08;102564.28;;;2.75;71.53
3780;BME280;1905;52.482;9.802;2023-04-04T08:27:38;102567.09;;;2.84;73.27
3780;BME280;1905;52.482;9.802;2023-04-04T08:30:10;102564.72;;;2.98;71.55
3780;BME280;1905;52.482;9.802;2023-04-04T08:32:39;102571.00;;;3.09;71.03
3780;BME280;1905;52.482;9.802;2023-04-04T08:35:08;102565.09;;;3.21;70.39
3780;BME280;1905;52.482;9.802;2023-04-04T08:37:35;102560.03;;;3.30;69.90
3780;BME280;1905;52.482;9.802;2023-04-04T08:40:04;102559.31;;;3.38;70.14
3780;BME280;1905;52.482;9.802;2023-04-04T08:42:32;102563.06;;;3.55;69.70
3780;BME280;1905;52.482;9.802;2023-04-04T08:45:02;102564.94;;;3.66;68.08
3780;BME280;1905;52.482;9.802;2023-04-04T08:47:32;102565.16;;;3.78;68.78
3780;BME280;1905;52.482;9.802;2023-04-04T08:50:05;102557.50;;;3.91;65.21
3780;BME280;1905;52.482;9.802;2023-04-04T08:52:33;102557.69;;;4.06;67.84
3780;BME280;1905;52.482;9.802;2023-04-04T08:55:03;102552.59;;;4.15;66.53
3780;BME280;1905;52.482;9.802;2023-04-04T08:57:31;102552.59;;;4.18;68.01
3780;BME280;1905;52.482;9.802;2023-04-04T08:59:59;102547.56;;;4.34;66.25
3780;BME280;1905;52.482;9.802;2023-04-04T09:02:33;102544.34;;;4.56;66.13
3780;BME280;1905;52.482;9.802;2023-04-04T09:05:06;102545.34;;;4.68;65.54
3780;BME280;1905;52.482;9.802;2023-04-04T09:07:34;102541.06;;;4.76;63.96
3780;BME280;1905;52.482;9.802;2023-04-04T09:10:07;102543.81;;;4.89;65.06
3780;BME280;1905;52.482;9.802;2023-04-04T09:12:36;102547.22;;;4.81;63.97
3780;BME280;1905;52.482;9.802;2023-04-04T09:15:06;102548.25;;;4.94;62.89
3780;BME280;1905;52.482;9.802;2023-04-04T09:17:34;102545.72;;;5.06;61.68
3780;BME280;1905;52.482;9.802;2023-04-04T09:20:11;102543.16;;;5.12;64.03
3780;BME280;1905;52.482;9.802;2023-04-04T09:22:52;102544.13;;;5.23;63.36
3780;BME280;1905;52.482;9.802;2023-04-04T09:25:21;102538.88;;;5.23;64.67
3780;BME280;1905;52.482;9.802;2023-04-04T09:27:50;102541.59;;;5.35;63.09
3780;BME280;1905;52.482;9.802;2023-04-04T09:30:19;102539.88;;;5.37;63.53
3780;BME280;1905;52.482;9.802;2023-04-04T09:32:46;102543.38;;;5.39;63.06
3780;BME280;1905;52.482;9.802;2023-04-04T09:35:15;102534.66;;;5.43;62.84
3780;BME280;1905;52.482;9.802;2023-04-04T09:37:43;102532.94;;;5.46;62.64
3780;BME280;1905;52.482;9.802;2023-04-04T09:40:12;102539.94;;;5.50;61.98
3780;BME280;1905;52.482;9.802;2023-04-04T09:42:41;102540.84;;;5.53;61.92
3780;BME280;1905;52.482;9.802;2023-04-04T09:45:10;102539.09;;;5.52;61.36
3780;BME280;1905;52.482;9.802;2023-04-04T09:47:47;102532.13;;;5.56;61.80
3780;BME280;1905;52.482;9.802;2023-04-04T09:50:20;102532.16;;;5.54;61.40
3780;BME280;1905;52.482;9.802;2023-04-04T09:52:49;102525.16;;;5.58;61.76
3780;BME280;1905;52.482;9.802;2023-04-04T09:55:17;102538.22;;;5.55;63.28
3780;BME280;1905;52.482;9.802;2023-04-04T09:57:45;102542.63;;;5.57;62.63
3780;BME280;1905;52.482;9.802;2023-04-04T10:00:18;102537.41;;;5.60;62.86
3780;BME280;1905;52.482;9.802;2023-04-04T10:02:47;102533.91;;;5.58;61.62
3780;BME280;1905;52.482;9.802;2023-04-04T10:05:17;102538.22;;;5.55;60.47
3780;BME280;1905;52.482;9.802;2023-04-04T10:07:46;102539.16;;;5.57;59.52
3780;BME280;1905;52.482;9.802;2023-04-04T10:10:14;102528.66;;;5.58;62.27
3780;BME280;1905;52.482;9.802;2023-04-04T10:12:44;102524.28;;;5.60;63.85
3780;BME280;1905;52.482;9.802;2023-04-04T10:15:14;102536.53;;;5.57;59.96
3780;BME280;1905;52.482;9.802;2023-04-04T10:17:42;102530.38;;;5.55;58.93
3780;BME280;1905;52.482;9.802;2023-04-04T10:20:11;102521.63;;;5.53;60.88
3780;BME280;1905;52.482;9.802;2023-04-04T10:22:39;102526.91;;;5.54;61.91
3780;BME280;1905;52.482;9.802;2023-04-04T10:25:10;102531.28;;;5.58;61.07
3780;BME280;1905;52.482;9.802;2023-04-04T10:27:37;102527.75;;;5.53;59.14
3780;BME280;1905;52.482;9.802;2023-04-04T10:30:06;102524.25;;;5.53;61.43
3780;BME280;1905;52.482;9.802;2023-04-04T10:32:44;102513.78;;;5.53;63.11
3780;BME280;1905;52.482;9.802;2023-04-04T10:35:16;102521.63;;;5.53;60.56
3780;BME280;1905;52.482;9.802;2023-04-04T10:37:51;102519.88;;;5.49;59.85
3780;BME280;1905;52.482;9.802;2023-04-04T10:40:23;102516.41;;;5.53;58.89
3780;BME280;1905;52.482;9.802;2023-04-04T10:42:54;102515.53;;;5.55;61.03
3780;BME280;1905;52.482;9.802;2023-04-04T10:45:22;102508.53;;;5.53;60.01
3780;BME280;1905;52.482;9.802;2023-04-04T10:47:51;102506.78;;;5.52;60.71
3780;BME280;1905;52.482;9.802;2023-04-04T10:50:19;102493.66;;;5.46;59.92
3780;BME280;1905;52.482;9.802;2023-04-04T10:52:49;102496.31;;;5.52;61.01
3780;BME280;1905;52.482;9.802;2023-04-04T10:55:17;102485.84;;;5.52;59.23
3780;BME280;1905;52.482;9.802;2023-04-04T10:57:49;102498.16;;;5.68;57.74
3780;BME280;1905;52.482;9.802;2023-04-04T11:00:18;102492.00;;;5.61;58.23
3780;BME280;1905;52.482;9.802;2023-04-04T11:02:52;102488.53;;;5.62;57.81
3780;BME280;1905;52.482;9.802;2023-04-04T11:05:23;102481.50;;;5.60;58.71
3780;BME280;1905;52.482;9.802;2023-04-04T11:07:57;102475.38;;;5.58;59.15
3780;BME280;1905;52.482;9.802;2023-04-04T11:10:29;102479.81;;;5.72;58.23
3780;BME280;1905;52.482;9.802;2023-04-04T11:13:01;102469.31;;;5.66;59.87
3780;BME280;1905;52.482;9.802;2023-04-04T11:15:52;102464.09;;;5.68;60.31
3780;BME280;1905;52.482;9.802;2023-04-04T11:21:03;102464.97;;;5.73;59.59
3780;BME280;1905;52.482;9.802;2023-04-04T11:24:14;102457.13;;;5.79;59.47
3780;BME280;1905;52.482;9.802;2023-04-04T11:26:42;102454.53;;;5.80;60.17
3780;BME280;1905;52.482;9.802;2023-04-04T11:29:19;102452.78;;;5.78;59.52
3780;BME280;1905;52.482;9.802;2023-04-04T11:31:49;102458.03;;;5.81;57.96
3780;BME280;1905;52.482;9.802;2023-04-04T11:34:30;102448.41;;;5.83;58.49
3780;BME280;1905;52.482;9.802;2023-04-04T11:37:16;102449.34;;;5.88;62.10
3780;BME280;1905;52.482;9.802;2023-04-04T11:39:47;102445.00;;;5.94;61.20
3780;BME280;1905;52.482;9.802;2023-04-04T11:42:22;102445.88;;;5.98;60.58
3780;BME280;1905;52.482;9.802;2023-04-04T11:45:03;102436.31;;;6.08;61.35
3780;BME280;1905;52.482;9.802;2023-04-04T11:47:42;102431.06;;;6.20;58.59
3780;BME280;1905;52.482;9.802;2023-04-04T11:50:14;102434.59;;;6.22;60.19
3780;BME280;1905;52.482;9.802;2023-04-04T11:52:42;102432.00;;;6.25;58.95
3780;BME280;1905;52.482;9.802;2023-04-04T11:55:15;102428.50;;;6.30;58.85
3780;BME280;1905;52.482;9.802;2023-04-04T11:57:45;102421.50;;;6.32;60.35
3780;BME280;1905;52.482;9.802;2023-04-04T12:00:27;102414.53;;;6.43;57.29
3780;BME280;1905;52.482;9.802;2023-04-04T12:02:55;102405.78;;;6.47;59.57
3780;BME280;1905;52.482;9.802;2023-04-04T12:05:25;102406.66;;;6.62;59.74
3780;BME280;1905;52.482;9.802;2023-04-04T12:07:53;102411.03;;;6.63;57.84
3780;BME280;1905;52.482;9.802;2023-04-04T12:10:22;102403.16;;;6.67;58.26
3780;BME280;1905;52.482;9.802;2023-04-04T12:12:53;102396.16;;;6.66;59.77
3780;BME280;1905;52.482;9.802;2023-04-04T12:15:22;102383.03;;;6.78;57.14
3780;BME280;1905;52.482;9.802;2023-04-04T12:17:49;102383.91;;;6.86;58.71
3780;BME280;1905;52.482;9.802;2023-04-04T12:20:20;102383.91;;;6.92;56.38
3780;BME280;1905;52.482;9.802;2023-04-04T12:22:48;102390.03;;;6.94;59.52
3780;BME280;1905;52.482;9.802;2023-04-04T12:25:18;102380.38;;;7.01;58.93
3780;BME280;1905;52.482;9.802;2023-04-04T12:27:48;102382.97;;;7.13;58.90
3780;BME280;1905;52.482;9.802;2023-04-04T12:30:17;102377.72;;;7.13;57.65
3780;BME280;1905;52.482;9.802;2023-04-04T12:32:46;102372.47;;;7.19;59.41
3780;BME280;1905;52.482;9.802;2023-04-04T12:35:14;102370.69;;;7.27;59.11
3780;BME280;1905;52.482;9.802;2023-04-04T12:37:56;102366.28;;;7.29;57.66
3780;BME280;1905;52.482;9.802;2023-04-04T12:40:28;102366.31;;;7.34;56.05
3780;BME280;1905;52.482;9.802;2023-04-04T12:42:58;102368.00;;;7.41;57.40
3780;BME280;1905;52.482;9.802;2023-04-04T12:45:26;102368.88;;;7.44;58.24
3780;BME280;1905;52.482;9.802;2023-04-04T12:47:55;102362.75;;;7.47;60.00
3780;BME280;1905;52.482;9.802;2023-04-04T12:50:25;102354.81;;;7.54;57.64
3780;BME280;1905;52.482;9.802;2023-04-04T12:52:53;102349.53;;;7.60;56.82
3780;BME280;1905;52.482;9.802;2023-04-04T12:55:44;102348.63;;;7.64;57.72
3780;BME280;1905;52.482;9.802;2023-04-04T12:58:15;102352.13;;;7.66;58.47
3780;BME280;1905;52.482;9.802;2023-04-04T13:00:43;102338.97;;;7.69;56.84
3780;BME280;1905;52.482;9.802;2023-04-04T13:03:13;102335.44;;;7.76;56.96
3780;BME280;1905;52.482;9.802;2023-04-04T13:05:42;102328.34;;;7.88;55.61
3780;BME280;1905;52.482;9.802;2023-04-04T13:08:10;102329.19;;;7.96;55.87
3780;BME280;1905;52.482;9.802;2023-04-04T13:10:57;102327.31;;;8.08;58.31
3780;BME280;1905;52.482;9.802;2023-04-04T13:13:33;102322.91;;;8.15;57.96
3780;BME280;1905;52.482;9.802;2023-04-04T13:16:02;102314.06;;;8.22;58.27
3780;BME280;1905;52.482;9.802;2023-04-04T13:18:33;102315.78;;;8.29;56.09
3780;BME280;1905;52.482;9.802;2023-04-04T13:21:05;102305.25;;;8.32;56.25
3780;BME280;1905;52.482;9.802;2023-04-04T13:23:37;102296.41;;;8.42;58.11
3780;BME280;1905;52.482;9.802;2023-04-04T13:26:06;102293.66;;;8.51;58.62
3780;BME280;1905;52.482;9.802;2023-04-04T13:28:36;102300.59;;;8.63;60.63
3780;BME280;1905;52.482;9.802;2023-04-04T13:31:05;102296.16;;;8.69;57.37
3780;BME280;1905;52.482;9.802;2023-04-04T13:33:34;102295.16;;;8.79;57.40
3780;BME280;1905;52.482;9.802;2023-04-04T13:36:02;102291.59;;;8.85;58.15
3780;BME280;1905;52.482;9.802;2023-04-04T13:38:30;102287.19;;;8.84;52.47